Time;durP1;ratioP1;P1;durP2;ratioP2;P2;SDS_P1;SDS_P2;PMS_P1;PMS_P2;Temp;Humidity;BMP_temperature;BMP_pressure;BME280_temperature;BME280_humidity;BME280_pressure;Samples;Min_cycle;Max_cycle;Signal;HPM_P1;HPM_P2
2022/09/10 00:01:36;;;;;;;4.10;2.30;;;13.00;99.90;;;;;;5092979;28;20190;-67
2022/09/10 00:04:11;;;;;;;4.47;2.40;;;12.90;99.90;;;;;;5093208;28;20182;-66
2022/09/10 00:06:41;;;;;;;7.20;2.63;;;12.90;99.90;;;;;;5093114;28;20189;-65
2022/09/10 00:09:11;;;;;;;4.88;2.53;;;12.90;99.90;;;;;;5093004;28;20217;-67
2022/09/10 00:11:41;;;;;;;4.85;2.40;;;12.90;99.90;;;;;;5092973;28;20187;-66
2022/09/10 00:14:14;;;;;;;6.15;2.70;;;13.00;99.90;;;;;;5093007;28;20198;-67
2022/09/10 00:16:44;;;;;;;4.22;2.67;;;13.00;99.90;;;;;;5092981;28;20209;-66
2022/09/10 00:19:14;;;;;;;3.58;2.30;;;13.00;99.90;;;;;;5092887;28;20214;-65
2022/09/10 00:21:44;;;;;;;4.68;2.50;;;13.00;99.90;;;;;;5092630;28;20194;-64
2022/09/10 00:24:12;;;;;;;3.75;2.60;;;13.00;99.90;;;;;;5093125;28;20509;-66
2022/09/10 00:26:41;;;;;;;3.55;2.20;;;13.00;99.90;;;;;;5092793;28;20194;-66
2022/09/10 00:29:16;;;;;;;2.80;2.22;;;13.00;99.90;;;;;;5091617;28;20226;-65
2022/09/10 00:31:45;;;;;;;4.10;2.30;;;13.00;99.90;;;;;;5092648;28;20253;-65
2022/09/10 00:34:15;;;;;;;3.17;2.45;;;13.10;99.90;;;;;;5090777;28;20194;-65
2022/09/10 00:36:45;;;;;;;4.75;2.40;;;13.10;99.90;;;;;;5091546;28;20656;-69
2022/09/10 00:39:16;;;;;;;6.10;2.60;;;13.10;99.90;;;;;;5092651;28;20221;-66
2022/09/10 00:41:47;;;;;;;2.88;2.40;;;13.10;99.90;;;;;;5092497;28;20659;-66
2022/09/10 00:44:53;;;;;;;3.58;2.40;;;13.10;99.90;;;;;;5091340;28;20548;-67
2022/09/10 00:47:25;;;;;;;6.88;2.40;;;13.10;99.90;;;;;;5092566;28;20221;-67
2022/09/10 00:50:01;;;;;;;6.95;2.42;;;13.10;99.90;;;;;;5092431;28;20189;-68
2022/09/10 00:52:30;;;;;;;3.65;2.30;;;13.10;99.90;;;;;;5091445;28;20190;-67
2022/09/10 00:54:59;;;;;;;4.32;2.22;;;13.10;99.90;;;;;;5091231;28;20194;-68
2022/09/10 00:57:28;;;;;;;5.22;2.55;;;13.10;99.90;;;;;;5092262;28;20225;-66
2022/09/10 01:00:02;;;;;;;5.38;1.98;;;13.10;99.90;;;;;;5092342;28;20194;-67
2022/09/10 01:02:30;;;;;;;4.68;1.90;;;13.10;99.90;;;;;;5092379;28;20206;-67
2022/09/10 01:05:03;;;;;;;3.45;1.83;;;13.10;99.90;;;;;;5091121;28;20213;-66
2022/09/10 01:07:33;;;;;;;4.85;2.10;;;13.10;99.90;;;;;;5092348;28;20210;-66
2022/09/10 01:10:07;;;;;;;4.85;1.65;;;13.10;99.90;;;;;;5092339;28;20182;-66
2022/09/10 01:12:52;;;;;;;2.85;1.85;;;13.10;99.90;;;;;;5091078;28;20642;-66
2022/09/10 01:15:30;;;;;;;5.85;1.90;;;13.20;99.90;;;;;;5092275;28;20206;-67
2022/09/10 01:18:13;;;;;;;4.63;1.67;;;13.20;99.90;;;;;;5091083;28;20217;-66
2022/09/10 01:21:09;;;;;;;5.05;1.98;;;13.20;99.90;;;;;;5091173;28;20193;-66
2022/09/10 01:24:24;;;;;;;4.82;1.65;;;13.20;99.90;;;;;;5090826;28;20237;-68
2022/09/10 01:27:31;;;;;;;3.22;1.55;;;13.20;99.90;;;;;;5077728;28;20206;-67
2022/09/10 01:30:06;;;;;;;2.08;1.52;;;13.10;99.90;;;;;;5080154;28;20206;-67
2022/09/10 01:33:05;;;;;;;5.40;1.90;;;13.20;99.90;;;;;;5087403;28;20195;-67
2022/09/10 01:35:43;;;;;;;1.75;1.50;;;13.20;99.90;;;;;;5060413;28;20207;-66
2022/09/10 01:38:15;;;;;;;2.50;1.30;;;13.20;99.90;;;;;;5071923;28;20227;-68
2022/09/10 01:40:45;;;;;;;4.00;1.55;;;13.10;99.90;;;;;;5070965;28;20199;-67
2022/09/10 01:43:18;;;;;;;2.05;1.48;;;13.10;99.90;;;;;;5071314;28;20256;-67
2022/09/10 01:46:03;;;;;;;3.40;1.58;;;13.10;99.90;;;;;;5071128;28;20543;-67
2022/09/10 01:48:49;;;;;;;4.60;1.50;;;13.10;99.90;;;;;;5074151;28;20227;-67
2022/09/10 01:51:26;;;;;;;5.88;1.73;;;13.10;99.90;;;;;;5075345;28;20183;-65
2022/09/10 01:54:14;;;;;;;3.47;1.60;;;13.20;99.90;;;;;;5091004;28;20203;-66
2022/09/10 01:56:50;;;;;;;2.45;1.35;;;13.10;99.90;;;;;;5075650;28;20203;-66
2022/09/10 01:59:29;;;;;;;3.05;1.50;;;13.10;99.90;;;;;;5090465;28;20689;-66
2022/09/10 02:02:05;;;;;;;3.00;1.60;;;13.10;99.90;;;;;;5090672;28;20217;-68
2022/09/10 02:04:35;;;;;;;5.05;1.60;;;13.10;99.90;;;;;;5073685;28;20238;-66
2022/09/10 02:07:06;;;;;;;4.30;1.90;;;13.10;99.90;;;;;;5074049;28;20281;-65
2022/09/10 02:09:35;;;;;;;3.25;1.60;;;13.10;99.90;;;;;;5090468;28;20213;-66
2022/09/10 02:12:11;;;;;;;3.30;1.45;;;13.20;99.90;;;;;;5075211;28;20199;-68
2022/09/10 02:14:55;;;;;;;3.92;1.25;;;13.10;99.90;;;;;;5090538;28;20203;-67
2022/09/10 02:17:51;;;;;;;1.88;1.42;;;13.10;99.90;;;;;;5073959;28;20689;-67
2022/09/10 02:20:20;;;;;;;4.32;1.75;;;13.10;99.90;;;;;;5079246;28;20203;-67
2022/09/10 02:22:57;;;;;;;2.67;1.23;;;13.20;99.90;;;;;;5073592;28;20207;-68
2022/09/10 02:25:32;;;;;;;2.92;1.50;;;13.20;99.90;;;;;;5073673;28;20207;-69
2022/09/10 02:28:04;;;;;;;2.38;1.48;;;13.10;99.90;;;;;;5073456;28;20222;-67
2022/09/10 02:30:33;;;;;;;4.35;1.45;;;13.10;99.90;;;;;;5074651;28;20203;-67
2022/09/10 02:33:03;;;;;;;2.67;1.40;;;13.10;99.90;;;;;;5074686;28;20704;-67
2022/09/10 02:35:32;;;;;;;1.92;1.20;;;13.10;99.90;;;;;;5073786;28;20206;-66
2022/09/10 02:38:01;;;;;;;2.15;1.17;;;13.10;99.90;;;;;;5073254;28;20219;-66
2022/09/10 02:40:30;;;;;;;1.95;1.02;;;13.10;99.90;;;;;;5073170;28;20567;-67
2022/09/10 02:42:59;;;;;;;3.70;1.30;;;13.20;99.90;;;;;;5073300;28;20203;-66
2022/09/10 02:45:29;;;;;;;2.70;0.90;;;13.10;99.90;;;;;;5073128;28;20237;-67
2022/09/10 02:47:59;;;;;;;3.42;1.20;;;13.10;99.90;;;;;;5074565;28;20222;-66
2022/09/10 02:50:30;;;;;;;2.65;1.30;;;13.10;99.90;;;;;;5073072;28;20206;-66
2022/09/10 02:52:59;;;;;;;2.90;1.10;;;13.10;99.90;;;;;;5073309;28;20214;-67
2022/09/10 02:55:29;;;;;;;2.00;1.00;;;13.10;99.90;;;;;;5074138;28;20203;-66
2022/09/10 02:57:58;;;;;;;2.03;1.00;;;13.10;99.90;;;;;;5088622;28;20223;-66
2022/09/10 03:00:27;;;;;;;2.40;1.10;;;13.20;99.90;;;;;;5072831;28;20214;-68
2022/09/10 03:02:56;;;;;;;1.23;0.95;;;13.10;99.90;;;;;;5073083;28;20213;-67
2022/09/10 03:05:31;;;;;;;1.42;0.90;;;13.20;99.90;;;;;;5072737;28;20238;-66
2022/09/10 03:08:00;;;;;;;3.03;1.25;;;13.20;99.90;;;;;;5074113;28;20215;-67
2022/09/10 03:10:30;;;;;;;1.67;0.80;;;13.20;99.90;;;;;;5072632;28;20767;-66
2022/09/10 03:12:59;;;;;;;3.50;1.20;;;13.20;99.90;;;;;;5072606;28;20206;-67
2022/09/10 03:15:28;;;;;;;3.90;1.10;;;13.20;99.90;;;;;;5073737;28;20210;-68
2022/09/10 03:17:57;;;;;;;2.60;1.10;;;13.20;99.90;;;;;;5072706;28;20231;-69
2022/09/10 03:20:26;;;;;;;2.42;1.05;;;13.20;99.90;;;;;;5072096;28;20214;-69
2022/09/10 03:22:56;;;;;;;3.88;1.00;;;13.20;99.90;;;;;;5072387;28;20226;-69
2022/09/10 03:25:25;;;;;;;1.05;0.80;;;13.20;99.90;;;;;;5072206;28;20235;-69
2022/09/10 03:27:58;;;;;;;2.65;1.10;;;13.20;99.90;;;;;;5073699;28;20226;-69
2022/09/10 03:30:28;;;;;;;3.47;0.95;;;13.20;99.90;;;;;;5072272;28;20225;-70
2022/09/10 03:32:59;;;;;;;1.17;0.90;;;13.20;99.90;;;;;;5071825;28;20564;-68
2022/09/10 03:35:27;;;;;;;1.90;0.90;;;13.20;99.90;;;;;;5088624;28;20566;-68
2022/09/10 03:37:57;;;;;;;1.52;0.88;;;13.10;99.90;;;;;;5073192;28;20599;-68
2022/09/10 03:40:28;;;;;;;3.03;0.80;;;13.20;99.90;;;;;;5073277;28;20199;-67
2022/09/10 03:42:57;;;;;;;1.77;1.10;;;13.20;99.90;;;;;;5073399;28;20203;-67
2022/09/10 03:45:27;;;;;;;3.63;1.17;;;13.20;99.90;;;;;;5072123;28;20696;-69
2022/09/10 03:47:56;;;;;;;3.53;1.00;;;13.20;99.90;;;;;;5071891;28;20215;-70
2022/09/10 03:50:25;;;;;;;5.20;1.25;;;13.20;99.90;;;;;;5071801;28;20214;-69
2022/09/10 03:52:55;;;;;;;3.22;1.25;;;13.20;99.90;;;;;;5071933;28;20857;-70
2022/09/10 03:55:26;;;;;;;4.45;1.23;;;13.20;99.90;;;;;;5088367;28;20214;-68
2022/09/10 03:57:54;;;;;;;4.45;1.33;;;13.20;99.90;;;;;;5071481;28;20237;-69
2022/09/10 04:00:23;;;;;;;3.72;1.13;;;13.20;99.90;;;;;;5071995;28;20213;-70
2022/09/10 04:02:52;;;;;;;3.92;1.35;;;13.10;99.90;;;;;;5071792;28;20206;-69
2022/09/10 04:05:22;;;;;;;3.15;1.27;;;13.10;99.90;;;;;;5071643;28;20218;-70
2022/09/10 04:07:50;;;;;;;2.05;1.30;;;13.00;99.90;;;;;;5072687;28;20218;-69
2022/09/10 04:10:20;;;;;;;1.88;1.00;;;13.00;99.90;;;;;;5071709;28;20198;-68
2022/09/10 04:12:51;;;;;;;7.15;1.52;;;12.90;99.90;;;;;;5088293;28;20211;-67
2022/09/10 04:15:21;;;;;;;4.78;1.63;;;12.90;99.90;;;;;;5071676;28;20184;-69
2022/09/10 04:17:53;;;;;;;4.82;1.25;;;12.90;99.90;;;;;;5071699;28;20230;-68
2022/09/10 04:20:25;;;;;;;3.85;1.50;;;12.90;99.90;;;;;;5071666;28;20203;-67
2022/09/10 04:23:01;;;;;;;1.58;1.25;;;12.80;99.90;;;;;;5071457;28;20218;-67
2022/09/10 04:25:32;;;;;;;4.35;1.30;;;12.90;99.90;;;;;;5071270;28;20603;-67
2022/09/10 04:28:02;;;;;;;2.17;1.42;;;12.90;99.90;;;;;;5071431;28;20215;-67
2022/09/10 04:30:32;;;;;;;4.53;1.60;;;12.80;99.90;;;;;;5072410;28;20210;-68
2022/09/10 04:33:01;;;;;;;3.83;1.20;;;12.80;99.90;;;;;;5071396;28;20665;-67
2022/09/10 04:35:33;;;;;;;6.07;1.30;;;12.90;99.90;;;;;;5071396;28;20190;-70
2022/09/10 04:38:04;;;;;;;3.88;1.40;;;12.80;99.90;;;;;;5088128;28;20222;-68
2022/09/10 04:40:34;;;;;;;2.50;1.20;;;12.80;99.90;;;;;;5071555;28;20203;-70
2022/09/10 04:43:04;;;;;;;3.93;1.50;;;12.80;99.90;;;;;;5072489;28;20195;-69
2022/09/10 04:45:40;;;;;;;4.75;1.58;;;12.80;99.90;;;;;;5071093;28;20211;-69
2022/09/10 04:48:08;;;;;;;2.40;1.48;;;12.80;99.90;;;;;;5070946;28;20207;-70
2022/09/10 04:50:39;;;;;;;2.22;1.48;;;12.80;99.90;;;;;;5071085;28;20187;-67
2022/09/10 04:53:30;;;;;;;2.08;1.38;;;12.80;99.90;;;;;;5072286;28;20183;-66
2022/09/10 04:55:59;;;;;;;5.50;1.75;;;12.80;99.90;;;;;;5070978;28;20187;-69
2022/09/10 04:58:30;;;;;;;3.85;1.52;;;12.80;99.90;;;;;;5071048;28;20563;-68
2022/09/10 05:01:06;;;;;;;2.05;1.70;;;12.80;99.90;;;;;;5071033;28;20187;-68
2022/09/10 05:03:35;;;;;;;5.55;1.42;;;12.80;99.90;;;;;;5071069;28;20674;-66
2022/09/10 05:06:04;;;;;;;3.63;1.47;;;12.90;99.90;;;;;;5070898;28;20585;-64
2022/09/10 05:08:34;;;;;;;2.27;1.50;;;12.80;99.90;;;;;;5087838;28;20222;-65
2022/09/10 05:11:03;;;;;;;3.20;1.58;;;12.90;99.90;;;;;;5072068;28;20191;-65
2022/09/10 05:13:33;;;;;;;2.67;1.38;;;12.90;99.90;;;;;;5070950;28;20199;-65
2022/09/10 05:16:02;;;;;;;2.88;1.60;;;12.80;99.90;;;;;;5070965;28;20191;-65
2022/09/10 05:18:33;;;;;;;3.65;1.52;;;12.80;99.90;;;;;;5071019;28;20215;-65
2022/09/10 05:21:04;;;;;;;3.22;1.45;;;12.80;99.90;;;;;;5072221;28;20187;-65
2022/09/10 05:23:34;;;;;;;4.35;1.35;;;12.90;99.90;;;;;;5074771;28;20669;-64
2022/09/10 05:26:02;;;;;;;3.55;1.60;;;12.90;99.90;;;;;;5074758;28;20570;-64
2022/09/10 05:28:32;;;;;;;3.85;1.25;;;12.90;99.90;;;;;;5074721;28;20207;-64
2022/09/10 05:31:02;;;;;;;7.75;1.80;;;12.90;99.90;;;;;;5074708;28;20187;-63
2022/09/10 05:33:31;;;;;;;4.82;1.42;;;12.90;99.90;;;;;;5074884;28;20630;-65
2022/09/10 05:36:00;;;;;;;3.38;1.30;;;13.00;99.90;;;;;;5074654;28;20202;-64
2022/09/10 05:38:30;;;;;;;3.40;1.67;;;12.90;99.90;;;;;;5074528;28;20222;-64
2022/09/10 05:40:59;;;;;;;3.33;1.45;;;12.90;99.90;;;;;;5075393;28;20210;-62
2022/09/10 05:43:28;;;;;;;4.50;1.60;;;13.00;99.90;;;;;;5074425;28;20188;-64
2022/09/10 05:45:58;;;;;;;1.70;1.30;;;13.00;99.90;;;;;;5074233;28;20215;-64
2022/09/10 05:48:27;;;;;;;1.90;1.20;;;13.00;99.90;;;;;;5074301;28;20219;-65
2022/09/10 05:50:56;;;;;;;2.88;1.15;;;13.00;99.90;;;;;;5075552;28;20199;-64
2022/09/10 05:53:25;;;;;;;1.67;1.30;;;13.00;99.90;;;;;;5074256;28;20562;-65
2022/09/10 05:55:54;;;;;;;2.63;1.30;;;13.00;99.90;;;;;;5091088;28;20195;-66
2022/09/10 05:58:23;;;;;;;3.22;1.48;;;13.10;99.90;;;;;;5074107;28;20214;-65
2022/09/10 06:00:53;;;;;;;3.08;1.70;;;13.10;99.90;;;;;;5074171;28;20202;-65
2022/09/10 06:03:23;;;;;;;4.75;1.50;;;13.10;99.90;;;;;;5075142;28;20214;-64
2022/09/10 06:05:57;;;;;;;2.53;1.40;;;13.10;99.90;;;;;;5074078;28;20222;-65
2022/09/10 06:08:30;;;;;;;2.65;1.08;;;13.10;99.90;;;;;;5073941;28;20207;-65
2022/09/10 06:11:03;;;;;;;2.53;1.50;;;13.10;99.90;;;;;;5074051;28;20188;-65
2022/09/10 06:13:41;;;;;;;1.92;1.10;;;13.20;99.90;;;;;;5073134;28;20197;-64
2022/09/10 06:16:10;;;;;;;2.45;1.30;;;13.10;99.90;;;;;;5087375;28;20195;-63
2022/09/10 06:18:44;;;;;;;2.28;1.25;;;13.10;99.90;;;;;;5089821;28;20218;-66
2022/09/10 06:21:18;;;;;;;2.05;1.20;;;13.20;99.90;;;;;;5073720;28;20186;-67
2022/09/10 06:23:53;;;;;;;2.03;1.20;;;13.20;99.90;;;;;;5086673;28;20688;-66
2022/09/10 06:26:24;;;;;;;2.28;1.02;;;13.20;99.90;;;;;;5075204;28;20226;-66
2022/09/10 06:28:56;;;;;;;1.83;1.30;;;13.30;99.90;;;;;;5073272;28;20211;-66
2022/09/10 06:31:25;;;;;;;3.05;1.13;;;13.30;99.90;;;;;;5079099;28;20193;-66
2022/09/10 06:33:57;;;;;;;1.92;1.27;;;13.30;99.90;;;;;;5092698;28;20549;-67
2022/09/10 06:36:28;;;;;;;3.30;1.40;;;13.30;99.90;;;;;;5093423;28;20190;-67
2022/09/10 06:38:58;;;;;;;4.13;1.30;;;13.40;99.90;;;;;;5091159;28;20218;-67
2022/09/10 06:41:28;;;;;;;3.53;1.27;;;13.40;99.90;;;;;;5084280;28;20206;-67
2022/09/10 06:44:03;;;;;;;2.67;1.27;;;13.50;99.90;;;;;;5073778;28;20218;-67
2022/09/10 06:46:53;;;;;;;2.22;1.20;;;13.50;99.90;;;;;;5056479;28;20219;-65
2022/09/10 06:49:43;;;;;;;2.30;1.13;;;13.60;99.90;;;;;;5073057;28;20191;-67
2022/09/10 06:52:12;;;;;;;2.17;0.93;;;13.60;99.90;;;;;;5072943;28;20198;-66
2022/09/10 06:54:41;;;;;;;1.85;1.00;;;13.60;99.90;;;;;;5071720;28;20199;-66
2022/09/10 06:57:31;;;;;;;5.03;1.50;;;13.70;99.90;;;;;;5084982;28;20704;-66
2022/09/10 07:00:01;;;;;;;2.03;1.10;;;13.60;99.90;;;;;;5085418;28;20195;-66
2022/09/10 07:02:31;;;;;;;3.35;1.00;;;13.70;99.90;;;;;;5072756;28;21000;-67
2022/09/10 07:05:01;;;;;;;2.28;1.20;;;13.70;99.90;;;;;;5056069;28;20211;-67
2022/09/10 07:07:31;;;;;;;2.80;1.30;;;13.80;99.90;;;;;;5072509;28;20693;-67
2022/09/10 07:10:00;;;;;;;2.30;1.42;;;13.80;99.90;;;;;;5072185;28;20688;-66
2022/09/10 07:12:29;;;;;;;2.92;1.15;;;13.90;99.90;;;;;;5081833;28;20190;-66
2022/09/10 07:14:58;;;;;;;1.73;1.10;;;14.00;99.90;;;;;;5092878;28;20193;-66
2022/09/10 07:17:28;;;;;;;2.67;1.00;;;14.00;99.90;;;;;;5076102;28;20234;-67
2022/09/10 07:20:02;;;;;;;6.22;1.30;;;13.90;99.90;;;;;;5072732;28;20352;-67
2022/09/10 07:22:41;;;;;;;2.55;1.10;;;14.00;99.90;;;;;;5072134;28;20214;-66
2022/09/10 07:25:11;;;;;;;3.60;1.10;;;14.10;99.90;;;;;;5072286;28;20198;-67
2022/09/10 07:27:57;;;;;;;2.28;1.02;;;14.10;99.90;;;;;;5074222;28;20610;-67
2022/09/10 07:30:29;;;;;;;3.30;1.20;;;14.20;99.90;;;;;;5087380;28;20195;-67
2022/09/10 07:32:59;;;;;;;2.47;1.15;;;14.30;99.90;;;;;;5089813;28;20186;-66
2022/09/10 07:35:34;;;;;;;3.20;1.35;;;14.40;99.90;;;;;;5072583;28;20198;-66
2022/09/10 07:38:03;;;;;;;2.90;1.20;;;14.40;99.90;;;;;;5072087;28;20211;-67
2022/09/10 07:40:36;;;;;;;3.67;1.48;;;14.50;99.90;;;;;;5071860;28;20202;-67
2022/09/10 07:43:07;;;;;;;3.63;1.20;;;14.50;99.90;;;;;;5070782;28;20199;-67
2022/09/10 07:45:35;;;;;;;4.32;1.83;;;14.40;99.90;;;;;;5086039;28;20194;-68
2022/09/10 07:48:05;;;;;;;2.58;1.35;;;14.40;99.90;;;;;;5090678;28;20222;-68
2022/09/10 07:50:39;;;;;;;3.53;1.33;;;14.30;99.90;;;;;;5076167;28;20206;-68
2022/09/10 07:53:08;;;;;;;2.25;1.10;;;14.30;99.90;;;;;;5092107;28;20186;-68
2022/09/10 07:55:37;;;;;;;5.18;1.40;;;14.20;99.90;;;;;;5092296;28;20194;-67
2022/09/10 07:58:06;;;;;;;3.10;1.08;;;14.20;99.90;;;;;;5083866;28;20219;-66
2022/09/10 08:00:36;;;;;;;1.73;1.10;;;14.10;99.90;;;;;;5083049;28;20576;-67
2022/09/10 08:03:09;;;;;;;1.83;1.20;;;14.10;99.90;;;;;;5091787;28;20560;-66
2022/09/10 08:05:41;;;;;;;2.78;1.40;;;14.10;99.90;;;;;;5071713;28;20570;-66
2022/09/10 08:08:10;;;;;;;2.15;1.10;;;14.00;99.90;;;;;;5073197;28;20227;-67
2022/09/10 08:10:39;;;;;;;4.32;1.42;;;14.00;99.90;;;;;;5071551;28;20663;-67
2022/09/10 08:13:08;;;;;;;4.97;1.55;;;14.00;99.90;;;;;;5070469;28;20199;-65
2022/09/10 08:15:42;;;;;;;1.85;1.30;;;14.10;99.90;;;;;;5071316;28;20195;-66
2022/09/10 08:18:12;;;;;;;5.20;1.45;;;14.10;99.90;;;;;;5070016;28;20210;-69
2022/09/10 08:20:42;;;;;;;2.35;1.38;;;14.10;99.90;;;;;;5069868;28;20199;-68
2022/09/10 08:23:11;;;;;;;2.38;1.10;;;14.10;99.90;;;;;;5071087;28;20576;-67
2022/09/10 08:25:50;;;;;;;2.85;1.20;;;14.10;99.90;;;;;;5071202;28;20194;-66
2022/09/10 08:28:20;;;;;;;1.70;1.40;;;14.10;99.90;;;;;;5072414;28;20588;-65
2022/09/10 08:30:59;;;;;;;2.95;1.20;;;14.10;99.90;;;;;;5071233;28;20193;-66
2022/09/10 08:33:28;;;;;;;3.90;1.40;;;14.10;99.90;;;;;;5071610;28;20194;-66
2022/09/10 08:36:00;;;;;;;1.90;1.30;;;14.10;99.90;;;;;;5071242;28;20282;-66
2022/09/10 08:38:32;;;;;;;2.90;1.40;;;14.10;99.90;;;;;;5072480;28;20222;-66
2022/09/10 08:41:07;;;;;;;2.88;1.40;;;14.10;99.90;;;;;;5072525;28;20179;-67
2022/09/10 08:43:41;;;;;;;1.92;1.58;;;14.20;99.90;;;;;;5071232;28;20193;-67
2022/09/10 08:46:19;;;;;;;2.92;1.90;;;14.10;99.90;;;;;;5071336;28;20694;-66
2022/09/10 08:48:53;;;;;;;3.45;1.80;;;14.20;99.90;;;;;;5071273;28;20222;-66
2022/09/10 08:51:29;;;;;;;2.42;1.65;;;14.20;99.90;;;;;;5070795;28;20206;-66
2022/09/10 08:54:02;;;;;;;2.90;1.92;;;14.20;99.90;;;;;;5071238;28;20183;-66
2022/09/10 08:56:34;;;;;;;4.18;1.90;;;14.20;99.90;;;;;;5070568;28;20190;-66
2022/09/10 08:59:08;;;;;;;4.85;1.92;;;14.20;99.90;;;;;;5072236;28;20219;-66
2022/09/10 09:01:43;;;;;;;3.72;1.88;;;14.30;99.90;;;;;;5071176;28;20580;-65
2022/09/10 09:04:17;;;;;;;3.35;1.70;;;14.30;99.90;;;;;;5071086;28;20638;-66
2022/09/10 09:06:52;;;;;;;4.40;2.28;;;14.40;99.90;;;;;;5072051;28;20542;-66
2022/09/10 09:09:21;;;;;;;3.60;1.80;;;14.40;99.90;;;;;;5072174;28;20226;-66
2022/09/10 09:11:58;;;;;;;5.05;2.05;;;14.50;99.90;;;;;;5070934;28;20202;-67
2022/09/10 09:14:38;;;;;;;4.78;1.88;;;14.50;99.90;;;;;;5072095;28;20183;-66
2022/09/10 09:17:50;;;;;;;4.38;2.15;;;14.60;99.90;;;;;;5070922;28;20183;-67
2022/09/10 09:20:33;;;;;;;2.92;1.45;;;14.60;99.90;;;;;;5013646;28;20189;-67
2022/09/10 09:23:12;;;;;;;3.95;1.70;;;14.60;99.90;;;;;;5013330;28;20219;-66
2022/09/10 09:25:48;;;;;;;5.65;1.80;;;14.70;99.90;;;;;;5056715;28;20657;-67
2022/09/10 09:28:32;;;;;;;6.47;2.30;;;14.60;99.90;;;;;;5070688;28;20223;-67
2022/09/10 09:31:06;;;;;;;2.92;1.92;;;14.70;99.90;;;;;;5070857;28;20187;-68
2022/09/10 09:33:38;;;;;;;2.20;1.50;;;14.80;99.90;;;;;;5070828;28;20183;-68
2022/09/10 09:36:16;;;;;;;3.72;1.67;;;14.80;99.90;;;;;;5070790;28;20191;-66
2022/09/10 09:38:49;;;;;;;5.50;1.90;;;14.90;99.90;;;;;;5071878;28;20583;-66
2022/09/10 09:41:24;;;;;;;3.38;1.90;;;15.00;99.90;;;;;;5070775;28;20187;-67
2022/09/10 09:43:58;;;;;;;2.70;1.65;;;15.10;99.90;;;;;;5071809;28;20653;-65
2022/09/10 09:46:27;;;;;;;3.53;1.48;;;15.30;99.90;;;;;;5071835;28;20184;-65
2022/09/10 09:49:01;;;;;;;4.65;1.70;;;15.30;99.90;;;;;;5070560;28;20237;-66
2022/09/10 09:51:34;;;;;;;4.90;1.67;;;15.40;99.90;;;;;;5070668;28;20194;-66
2022/09/10 09:54:08;;;;;;;6.78;2.08;;;15.40;99.90;;;;;;5071707;28;20190;-66
2022/09/10 09:57:00;;;;;;;7.28;1.73;;;15.20;99.90;;;;;;5071625;28;20554;-65
2022/09/10 09:59:30;;;;;;;2.83;1.85;;;15.10;99.90;;;;;;5071765;28;20187;-66
2022/09/10 10:02:05;;;;;;;6.90;2.10;;;15.00;99.90;;;;;;5071719;28;20206;-66
2022/09/10 10:04:35;;;;;;;9.10;1.65;;;14.90;99.90;;;;;;5071627;28;20191;-65
2022/09/10 10:07:11;;;;;;;4.20;1.80;;;14.90;99.90;;;;;;5073007;28;20205;-65
2022/09/10 10:09:43;;;;;;;4.97;1.70;;;14.80;99.90;;;;;;5075181;28;20226;-66
2022/09/10 10:12:19;;;;;;;4.47;2.13;;;14.70;99.90;;;;;;5075114;28;20210;-66
2022/09/10 10:14:48;;;;;;;5.53;2.17;;;14.60;99.90;;;;;;5074960;28;20203;-65
2022/09/10 10:17:36;;;;;;;5.43;2.00;;;14.60;99.90;;;;;;5074972;28;20207;-66
2022/09/10 10:20:12;;;;;;;5.25;2.10;;;14.70;99.90;;;;;;5074937;28;20191;-67
2022/09/10 10:22:42;;;;;;;4.25;2.08;;;14.60;99.90;;;;;;5074832;28;20630;-67
2022/09/10 10:25:40;;;;;;;6.43;2.20;;;14.70;99.90;;;;;;5074832;28;20195;-67
2022/09/10 10:28:19;;;;;;;3.95;1.92;;;14.70;99.90;;;;;;5074767;28;20215;-67
2022/09/10 10:30:52;;;;;;;5.32;2.20;;;14.70;99.90;;;;;;5074715;28;20581;-66
2022/09/10 10:33:26;;;;;;;5.60;2.35;;;14.70;99.90;;;;;;5074793;28;20545;-66
2022/09/10 10:36:03;;;;;;;17.48;3.40;;;14.70;99.90;;;;;;5074702;28;20187;-66
2022/09/10 10:38:33;;;;;;;7.05;2.17;;;14.60;99.90;;;;;;5074779;28;20588;-66
2022/09/10 10:41:41;;;;;;;4.93;2.03;;;14.60;99.90;;;;;;5074641;28;20191;-66
2022/09/10 10:44:28;;;;;;;4.43;1.90;;;14.40;99.90;;;;;;5074545;28;20187;-67
2022/09/10 10:47:13;;;;;;;3.00;1.98;;;14.40;99.90;;;;;;5074420;28;20187;-67
2022/09/10 10:49:56;;;;;;;7.00;2.70;;;14.40;99.90;;;;;;5074523;28;20447;-66
2022/09/10 10:52:34;;;;;;;4.93;2.50;;;14.50;99.90;;;;;;5074347;28;20191;-66
2022/09/10 10:55:13;;;;;;;6.45;2.05;;;14.60;99.90;;;;;;5074601;28;20198;-66
2022/09/10 10:58:04;;;;;;;8.70;2.33;;;14.70;99.90;;;;;;5074150;28;20223;-66
2022/09/10 11:00:42;;;;;;;7.35;2.35;;;14.80;99.90;;;;;;5074220;28;20723;-65
2022/09/10 11:03:18;;;;;;;4.50;2.60;;;14.80;99.90;;;;;;5074117;28;20203;-67
2022/09/10 11:05:50;;;;;;;6.50;3.40;;;14.80;99.90;;;;;;5074147;28;20194;-66
2022/09/10 11:08:25;;;;;;;6.00;3.22;;;14.90;99.90;;;;;;5074135;28;20215;-66
2022/09/10 11:11:00;;;;;;;4.70;2.90;;;15.00;99.90;;;;;;5073853;28;20688;-65
2022/09/10 11:13:36;;;;;;;6.95;2.72;;;15.20;99.90;;;;;;5073908;28;20183;-67
2022/09/10 11:16:10;;;;;;;9.15;3.42;;;15.30;99.90;;;;;;5073958;28;20187;-65
2022/09/10 11:18:43;;;;;;;8.63;3.00;;;15.50;99.90;;;;;;5073389;28;20211;-66
2022/09/10 11:21:18;;;;;;;6.30;2.20;;;15.70;99.90;;;;;;5073916;28;20550;-65
2022/09/10 11:23:53;;;;;;;7.15;2.60;;;15.80;99.90;;;;;;5073790;28;20199;-65
2022/09/10 11:26:27;;;;;;;8.95;2.30;;;16.00;99.90;;;;;;5073678;28;20194;-66
2022/09/10 11:29:13;;;;;;;6.25;2.42;;;16.20;99.90;;;;;;5073638;28;20591;-67
2022/09/10 11:31:44;;;;;;;6.93;2.03;;;16.40;99.90;;;;;;5073689;28;20285;-66
2022/09/10 11:34:23;;;;;;;7.82;2.03;;;16.70;99.90;;;;;;5073582;28;20290;-64
2022/09/10 11:36:58;;;;;;;2.95;1.10;;;17.00;99.90;;;;;;5073572;28;20187;-64
2022/09/10 11:39:33;;;;;;;3.88;1.40;;;17.10;99.90;;;;;;5073387;28;20182;-66
2022/09/10 11:42:12;;;;;;;4.30;1.30;;;17.30;99.90;;;;;;5073352;28;20183;-66
2022/09/10 11:44:53;;;;;;;3.88;1.50;;;17.40;99.90;;;;;;5073652;28;20183;-65
2022/09/10 11:47:27;;;;;;;3.20;1.30;;;17.40;99.90;;;;;;5073262;28;20257;-65
2022/09/10 11:50:02;;;;;;;6.82;1.85;;;17.60;99.90;;;;;;5071932;28;20210;-66
2022/09/10 11:52:34;;;;;;;3.08;1.08;;;17.70;99.90;;;;;;5073256;28;20191;-66
2022/09/10 11:55:07;;;;;;;4.75;1.50;;;17.80;99.90;;;;;;5073223;28;20191;-66
2022/09/10 11:57:42;;;;;;;4.30;1.30;;;17.70;99.90;;;;;;5072905;28;20222;-65
2022/09/10 12:00:15;;;;;;;5.63;1.52;;;17.70;99.90;;;;;;5073107;28;20751;-66
2022/09/10 12:03:20;;;;;;;2.75;1.10;;;17.90;99.90;;;;;;5072893;28;20598;-66
2022/09/10 12:05:59;;;;;;;3.22;1.30;;;18.00;99.90;;;;;;5072853;28;20206;-66
2022/09/10 12:08:43;;;;;;;2.25;1.15;;;18.10;99.90;;;;;;5072781;28;20705;-67
2022/09/10 12:11:19;;;;;;;4.00;1.42;;;18.20;99.90;;;;;;5072797;28;20218;-67
2022/09/10 12:13:49;;;;;;;4.43;1.30;;;18.30;99.90;;;;;;5072808;28;20183;-68
2022/09/10 12:16:28;;;;;;;5.00;1.40;;;18.10;99.90;;;;;;5072735;28;20194;-67
2022/09/10 12:18:58;;;;;;;4.03;1.13;;;17.90;99.90;;;;;;5072655;28;20210;-67
2022/09/10 12:21:34;;;;;;;5.65;1.30;;;17.70;99.90;;;;;;5072563;28;20194;-67
2022/09/10 12:24:21;;;;;;;5.53;1.17;;;17.70;99.90;;;;;;5072660;28;20186;-69
2022/09/10 12:26:50;;;;;;;4.72;1.13;;;17.60;99.90;;;;;;5072656;28;20569;-66
2022/09/10 12:29:33;;;;;;;4.07;1.15;;;17.80;99.90;;;;;;5072358;28;20223;-68
2022/09/10 12:32:31;;;;;;;3.90;1.10;;;18.10;99.90;;;;;;5071964;28;20689;-67
2022/09/10 12:35:45;;;;;;;3.75;1.05;;;18.50;99.90;;;;;;5072515;28;20183;-66
2022/09/10 12:38:51;;;;;;;2.42;0.90;;;18.90;99.90;;;;;;5071839;28;20230;-68
2022/09/10 12:41:55;;;;;;;2.65;1.08;;;19.10;99.90;;;;;;5071835;28;20205;-67
2022/09/10 12:44:42;;;;;;;4.82;1.15;;;19.10;99.90;;;;;;5072027;28;20211;-68
2022/09/10 12:47:45;;;;;;;2.88;0.95;;;19.10;99.90;;;;;;5072143;28;20546;-68
2022/09/10 12:50:30;;;;;;;4.35;1.27;;;19.30;99.90;;;;;;5072159;28;20202;-69
2022/09/10 12:53:30;;;;;;;2.83;1.05;;;19.10;99.90;;;;;;5080211;28;20196;-70
2022/09/10 12:56:02;;;;;;;2.53;0.80;;;19.00;99.90;;;;;;5071969;28;20676;-68
2022/09/10 12:58:47;;;;;;;41.42;8.13;;;19.00;99.90;;;;;;5072076;28;20227;-70
2022/09/10 13:01:29;;;;;;;3.78;1.00;;;19.40;99.90;;;;;;5074880;28;20209;-71
2022/09/10 13:04:01;;;;;;;2.88;0.90;;;19.60;99.90;;;;;;5091287;28;20238;-70
2022/09/10 13:06:39;;;;;;;2.80;1.02;;;19.60;99.90;;;;;;5084951;28;20183;-70
2022/09/10 13:09:17;;;;;;;6.03;1.10;;;19.60;99.90;;;;;;5071726;28;20222;-71
2022/09/10 13:11:51;;;;;;;1.83;0.80;;;19.70;99.90;;;;;;5072002;28;20213;-70
2022/09/10 13:14:24;;;;;;;2.67;0.70;;;19.70;99.90;;;;;;5072559;28;20202;-69
2022/09/10 13:16:54;;;;;;;1.77;0.80;;;19.70;99.90;;;;;;5070933;28;20540;-69
2022/09/10 13:19:50;;;;;;;4.85;1.00;;;19.70;99.90;;;;;;5071750;28;20202;-69
2022/09/10 13:22:56;;;;;;;3.10;0.80;;;19.60;99.90;;;;;;5071744;28;20238;-69
2022/09/10 13:25:38;;;;;;;2.22;0.85;;;19.30;99.90;;;;;;5040877;28;20202;-70
2022/09/10 13:28:45;;;;;;;3.10;1.20;;;19.10;99.90;;;;;;5071794;28;20221;-70